createdAt,value
2022-11-22T00:00:29.335Z,75.35
2022-11-22T00:03:32.696Z,74.93
2022-11-22T00:06:34.840Z,74.35
2022-11-22T00:09:37.059Z,75.39
2022-11-22T00:12:39.962Z,74.37
2022-11-22T00:15:42.545Z,74.42
2022-11-22T00:18:44.566Z,74.66
2022-11-22T00:21:47.012Z,74.57
2022-11-22T00:24:51.870Z,74.57
2022-11-22T00:27:55.262Z,74.82
2022-11-22T00:31:00.341Z,75.23
2022-11-22T00:34:02.672Z,74.34
2022-11-22T00:37:04.835Z,75.54
2022-11-22T00:40:07.700Z,74.82
2022-11-22T00:43:09.739Z,74.78
2022-11-22T00:46:11.808Z,74.80
2022-11-22T00:49:13.979Z,75.61
2022-11-22T00:52:16.377Z,75.01
2022-11-22T00:55:18.525Z,74.54
2022-11-22T00:58:20.582Z,75.68
2022-11-22T01:01:22.680Z,74.78
2022-11-22T01:04:24.843Z,76.07
2022-11-22T01:07:27.551Z,76.10
2022-11-22T01:10:29.630Z,76.26
2022-11-22T01:13:31.907Z,75.00
2022-11-22T01:16:35.094Z,75.45
2022-11-22T01:19:37.238Z,75.27
2022-11-22T01:22:39.283Z,76.51
2022-11-22T01:25:44.375Z,75.30
2022-11-22T01:28:46.466Z,74.71
2022-11-22T01:31:48.561Z,74.31
2022-11-22T01:34:50.555Z,73.81
2022-11-22T01:37:52.764Z,74.84
2022-11-22T01:40:55.290Z,73.82
2022-11-22T01:43:57.418Z,74.10
2022-11-22T01:47:17.899Z,73.51
2022-11-22T01:50:20.404Z,73.51
2022-11-22T01:53:30.440Z,75.04
2022-11-22T01:56:33.209Z,74.47
2022-11-22T01:59:38.352Z,74.43
2022-11-22T02:02:41.595Z,73.81
2022-11-22T02:05:43.679Z,73.24
2022-11-22T02:08:56.930Z,74.25
2022-11-22T02:12:02.758Z,74.25
2022-11-22T02:15:05.226Z,73.75
2022-11-22T02:18:07.314Z,72.43
2022-11-22T02:21:09.691Z,73.43
2022-11-22T02:24:27.107Z,73.98
2022-11-22T02:27:29.178Z,73.23
2022-11-22T02:30:31.693Z,73.47
2022-11-22T02:33:33.788Z,74.21
2022-11-22T02:36:41.604Z,74.00
2022-11-22T02:39:47.715Z,75.59
2022-11-22T02:42:56.007Z,75.00
2022-11-22T02:46:05.247Z,76.36
2022-11-22T02:49:07.398Z,74.84
2022-11-22T02:52:09.694Z,75.85
2022-11-22T02:55:11.983Z,75.61
2022-11-22T02:58:14.259Z,76.76
2022-11-22T03:01:16.687Z,75.73
2022-11-22T03:04:25.236Z,75.29
2022-11-22T03:07:27.468Z,74.81
2022-11-22T03:10:29.575Z,75.29
2022-11-22T03:13:31.572Z,77.13
2022-11-22T03:16:33.679Z,75.97
2022-11-22T03:19:35.880Z,76.95
2022-11-22T03:22:37.898Z,77.75
2022-11-22T03:25:40.125Z,77.79
2022-11-22T03:28:42.332Z,78.34
2022-11-22T03:31:45.204Z,78.73
2022-11-22T03:34:47.589Z,78.71
2022-11-22T03:37:49.689Z,79.00
2022-11-22T03:40:51.840Z,78.36
2022-11-22T03:43:53.907Z,78.88
2022-11-22T03:46:56.421Z,79.55
2022-11-22T03:49:58.634Z,78.75
2022-11-22T03:53:02.194Z,78.37
2022-11-22T03:56:04.971Z,78.08
2022-11-22T03:59:07.373Z,78.67
2022-11-22T04:02:09.693Z,80.04
2022-11-22T04:05:11.858Z,80.16
2022-11-22T04:08:14.313Z,79.75
2022-11-22T04:11:16.560Z,80.33
2022-11-22T04:14:37.522Z,79.89
2022-11-22T04:17:41.882Z,80.57
2022-11-22T04:21:02.982Z,80.42
2022-11-22T04:24:28.747Z,81.24
2022-11-22T04:27:31.156Z,81.25
2022-11-22T04:30:52.094Z,82.68
2022-11-22T04:33:54.100Z,85.24
2022-11-22T04:36:56.733Z,85.53
2022-11-22T04:39:59.404Z,89.41
2022-11-22T04:43:20.966Z,89.23
2022-11-22T04:46:25.563Z,88.31
2022-11-22T04:49:28.563Z,89.05
2022-11-22T04:52:49.958Z,87.58
2022-11-22T04:55:52.881Z,88.27
2022-11-22T04:58:55.021Z,87.31
2022-11-22T05:01:57.069Z,88.16
2022-11-22T05:05:00.334Z,87.79
2022-11-22T05:08:02.897Z,87.05
2022-11-22T05:11:05.087Z,85.26
2022-11-22T05:14:07.277Z,85.77
2022-11-22T05:17:13.635Z,85.21
2022-11-22T05:20:16.036Z,86.01
2022-11-22T05:23:37.436Z,86.03
2022-11-22T05:26:40.147Z,85.97
2022-11-22T05:29:42.203Z,86.34
2022-11-22T05:32:44.205Z,86.49
2022-11-22T05:35:46.288Z,86.40
2022-11-22T05:38:48.730Z,86.79
2022-11-22T05:41:58.006Z,85.88
2022-11-22T05:45:00.042Z,85.45
2022-11-22T05:48:03.222Z,84.12
2022-11-22T05:51:12.078Z,83.17
2022-11-22T05:54:13.992Z,83.08
2022-11-22T05:57:16.565Z,82.23
2022-11-22T06:00:18.997Z,83.17
2022-11-22T06:03:21.198Z,83.80
2022-11-22T06:06:25.488Z,83.47
2022-11-22T06:09:27.666Z,80.44
2022-11-22T06:12:30.496Z,78.74
2022-11-22T06:15:34.348Z,77.48
2022-11-22T06:18:37.378Z,75.91
2022-11-22T06:21:39.717Z,75.65
2022-11-22T06:24:43.069Z,75.42
2022-11-22T06:27:45.013Z,75.35
2022-11-22T06:30:47.051Z,74.07
2022-11-22T06:33:49.651Z,73.38
2022-11-22T06:36:51.825Z,72.96
2022-11-22T06:39:53.907Z,75.65
2022-11-22T06:42:55.901Z,77.13
2022-11-22T06:45:59.183Z,75.87
2022-11-22T06:49:01.485Z,75.44
2022-11-22T06:52:03.709Z,77.34
2022-11-22T06:55:08.110Z,77.82
2022-11-22T06:58:13.648Z,74.24
2022-11-22T07:01:18.795Z,74.60
2022-11-22T07:04:21.167Z,77.06
2022-11-22T07:07:24.132Z,77.89
2022-11-22T07:10:26.249Z,78.39
2022-11-22T07:13:28.668Z,79.75
2022-11-22T07:16:32.755Z,80.93
2022-11-22T07:19:35.910Z,83.49
2022-11-22T07:22:38.948Z,84.46
2022-11-22T07:25:52.218Z,86.02
2022-11-22T07:28:58.426Z,85.20
2022-11-22T07:32:00.465Z,85.23
2022-11-22T07:35:17.286Z,85.75
2022-11-22T07:38:20.486Z,85.73
2022-11-22T07:41:22.770Z,84.64
2022-11-22T07:44:25.860Z,84.89
2022-11-22T07:47:28.951Z,84.11
2022-11-22T07:50:36.810Z,83.71
2022-11-22T07:53:39.536Z,83.76
2022-11-22T07:56:41.563Z,82.93
2022-11-22T07:59:43.732Z,83.06
2022-11-22T08:02:47.846Z,85.83
2022-11-22T08:05:50.642Z,83.71
2022-11-22T08:09:00.492Z,76.68
2022-11-22T08:12:05.219Z,77.76
2022-11-22T08:15:08.333Z,78.17
2022-11-22T08:18:10.990Z,79.11
2022-11-22T08:21:15.710Z,78.77
2022-11-22T08:24:21.377Z,81.07
2022-11-22T08:27:24.850Z,80.46
2022-11-22T08:30:27.140Z,81.28
2022-11-22T08:33:29.346Z,82.02
2022-11-22T08:36:32.071Z,83.22
2022-11-22T08:39:34.181Z,82.62
2022-11-22T08:42:36.343Z,83.33
2022-11-22T08:45:39.303Z,83.40
2022-11-22T08:48:41.369Z,83.56
2022-11-22T08:51:45.142Z,84.75
2022-11-22T08:54:47.811Z,84.37
2022-11-22T08:57:49.915Z,84.00
2022-11-22T09:00:52.074Z,83.48
2022-11-22T09:03:54.232Z,83.29
2022-11-22T09:10:19.428Z,83.67
2022-11-22T09:13:21.476Z,84.76
2022-11-22T09:16:23.979Z,83.53
2022-11-22T09:19:26.252Z,84.51
2022-11-22T09:22:28.680Z,83.98
2022-11-22T09:25:31.365Z,84.18
2022-11-22T09:28:34.779Z,84.81
2022-11-22T09:31:36.944Z,83.99
2022-11-22T09:34:38.928Z,85.37
2022-11-22T09:37:41.485Z,85.07
2022-11-22T09:40:47.630Z,84.31
2022-11-22T09:43:59.123Z,84.42
2022-11-22T09:47:25.577Z,83.83
2022-11-22T09:50:54.943Z,83.28
2022-11-22T09:54:08.909Z,80.43
2022-11-22T09:57:21.968Z,84.46
2022-11-22T10:00:28.412Z,88.05
2022-11-22T10:03:52.404Z,93.55
2022-11-22T10:07:03.150Z,100.00
2022-11-22T10:10:22.593Z,100.00
2022-11-22T10:13:51.411Z,100.00
2022-11-22T10:17:16.485Z,100.00
2022-11-22T10:20:27.842Z,99.74
2022-11-22T10:23:33.006Z,98.63
2022-11-22T10:26:36.899Z,98.17
2022-11-22T10:29:51.638Z,98.62
2022-11-22T10:33:19.706Z,100.00
2022-11-22T10:36:43.512Z,100.00
2022-11-22T10:40:12.121Z,100.00
2022-11-22T10:43:34.387Z,100.00
2022-11-22T10:46:51.110Z,100.00
2022-11-22T10:50:01.207Z,98.30
2022-11-22T10:53:31.175Z,95.93
2022-11-22T10:56:55.119Z,97.09
2022-11-22T11:00:21.633Z,97.24
2022-11-22T11:03:27.013Z,97.33
2022-11-22T11:07:09.985Z,98.38
2022-11-22T11:10:20.128Z,97.65
2022-11-22T11:13:35.142Z,99.64
2022-11-22T11:16:38.276Z,100.00
2022-11-22T11:19:43.358Z,98.90
2022-11-22T11:23:13.065Z,98.19
2022-11-22T11:26:32.915Z,96.98
2022-11-22T11:29:46.853Z,96.92
2022-11-22T11:32:56.844Z,97.59
2022-11-22T11:36:06.975Z,97.00
2022-11-22T11:39:23.962Z,96.95
2022-11-22T11:42:29.123Z,97.20
2022-11-22T11:45:31.319Z,96.11
2022-11-22T11:48:38.318Z,96.97
2022-11-22T11:51:41.638Z,96.14
2022-11-22T11:54:50.592Z,97.14
2022-11-22T11:57:53.985Z,98.91
2022-11-22T12:00:57.913Z,99.71
2022-11-22T12:04:03.910Z,99.85
2022-11-22T12:07:19.861Z,100.00
2022-11-22T12:10:45.942Z,100.00
2022-11-22T12:17:27.277Z,100.00
2022-11-22T12:20:41.439Z,100.00
2022-11-22T12:24:34.326Z,95.78
2022-11-22T12:27:26.929Z,97.58
2022-11-22T12:30:30.860Z,100.00
2022-11-22T12:33:44.120Z,100.00
2022-11-22T12:37:01.123Z,100.00
2022-11-22T12:40:13.022Z,97.31
2022-11-22T12:43:26.501Z,96.81
2022-11-22T12:46:42.431Z,95.67
2022-11-22T12:50:09.731Z,93.63
2022-11-22T12:53:15.562Z,92.83
2022-11-22T12:56:32.812Z,93.46
2022-11-22T12:59:44.341Z,95.68
2022-11-22T13:03:23.650Z,94.67
2022-11-22T13:06:32.534Z,96.39
2022-11-22T13:09:41.532Z,95.36
2022-11-22T13:12:48.107Z,94.17
2022-11-22T13:15:53.374Z,94.13
2022-11-22T13:18:57.525Z,94.34
2022-11-22T13:22:21.219Z,94.25
2022-11-22T13:25:29.964Z,92.46
2022-11-22T13:28:39.400Z,92.96
2022-11-22T13:32:12.485Z,92.80
2022-11-22T13:35:15.535Z,94.21
2022-11-22T13:38:22.200Z,93.89
2022-11-22T13:42:12.914Z,93.33
2022-11-22T13:45:26.700Z,93.83
2022-11-22T13:48:42.103Z,93.47
2022-11-22T13:52:15.716Z,92.20
2022-11-22T13:55:40.393Z,93.14
2022-11-22T13:58:51.056Z,92.63
2022-11-22T14:01:55.947Z,94.41
2022-11-22T14:04:59.358Z,96.27
2022-11-22T14:08:04.866Z,94.62
2022-11-22T14:11:49.117Z,94.50
2022-11-22T14:15:27.545Z,96.50
2022-11-22T14:18:41.220Z,96.28
2022-11-22T14:21:53.014Z,99.42
2022-11-22T14:25:36.955Z,100.00
2022-11-22T14:29:10.257Z,100.00
2022-11-22T14:32:21.051Z,100.00
2022-11-22T14:35:29.591Z,100.00
2022-11-22T14:38:41.158Z,100.00
2022-11-22T14:41:45.717Z,100.00
2022-11-22T14:44:52.990Z,100.00
2022-11-22T14:48:06.248Z,100.00
2022-11-22T14:51:15.028Z,100.00
2022-11-22T14:54:25.156Z,100.00
2022-11-22T14:57:30.583Z,100.00
2022-11-22T15:01:12.429Z,100.00
2022-11-22T15:09:11.521Z,100.00
2022-11-22T15:09:12.523Z,100.00
2022-11-22T15:12:03.842Z,100.00
2022-11-22T15:57:26.847Z,100.00
2022-11-22T16:00:29.787Z,100.00
2022-11-22T16:03:39.364Z,100.00
2022-11-22T16:06:43.725Z,100.00
2022-11-22T16:09:51.238Z,100.00
2022-11-22T16:12:54.038Z,100.00
2022-11-22T16:16:11.358Z,100.00
2022-11-22T16:19:33.882Z,100.00
2022-11-22T16:22:39.263Z,100.00
2022-11-22T16:25:47.174Z,100.00
2022-11-22T16:28:51.625Z,100.00
2022-11-22T16:32:08.032Z,100.00
2022-11-22T16:35:29.121Z,100.00
2022-11-22T16:38:33.524Z,100.00
2022-11-22T16:41:45.280Z,100.00
2022-11-22T16:48:40.875Z,100.00
2022-11-22T16:51:53.322Z,100.00
2022-11-22T16:54:56.664Z,100.00
2022-11-22T16:57:58.791Z,100.00
2022-11-22T17:01:01.322Z,100.00
2022-11-22T17:04:08.705Z,100.00
2022-11-22T17:07:16.142Z,100.00
2022-11-22T17:10:24.122Z,100.00
2022-11-22T17:13:28.757Z,100.00
2022-11-22T17:16:33.699Z,100.00
2022-11-22T17:19:53.514Z,100.00
2022-11-22T17:22:59.114Z,100.00
2022-11-22T17:26:01.394Z,100.00
2022-11-22T17:29:04.188Z,100.00
2022-11-22T17:32:09.513Z,100.00
2022-11-22T17:35:12.009Z,100.00
2022-11-22T17:38:20.134Z,100.00
2022-11-22T17:41:22.876Z,100.00
2022-11-22T17:44:28.098Z,100.00
2022-11-22T17:51:09.602Z,100.00
2022-11-22T17:54:15.799Z,100.00
2022-11-22T17:57:18.399Z,100.00
2022-11-22T18:00:29.716Z,100.00
2022-11-22T18:03:33.867Z,100.00
2022-11-22T18:06:36.589Z,100.00
2022-11-22T18:09:39.943Z,100.00
2022-11-22T18:13:19.551Z,100.00
2022-11-22T18:16:18.672Z,100.00
2022-11-22T18:19:21.532Z,100.00
2022-11-22T18:22:33.590Z,100.00
2022-11-22T18:25:41.464Z,100.00
2022-11-22T18:28:49.730Z,100.00
2022-11-22T18:32:08.057Z,100.00
2022-11-22T18:35:11.265Z,100.00
2022-11-22T18:38:13.362Z,100.00
2022-11-22T18:41:19.252Z,100.00
2022-11-22T18:44:21.351Z,100.00
2022-11-22T18:47:23.428Z,100.00
2022-11-22T18:50:25.743Z,100.00
2022-11-22T18:53:31.130Z,100.00
2022-11-22T18:56:38.068Z,100.00
2022-11-22T18:59:41.616Z,100.00
2022-11-22T19:02:43.963Z,100.00
2022-11-22T19:05:45.967Z,100.00
2022-11-22T19:08:49.154Z,100.00
2022-11-22T19:11:55.577Z,100.00
2022-11-22T19:15:01.883Z,100.00
2022-11-22T19:18:04.385Z,100.00
2022-11-22T19:21:17.080Z,100.00
2022-11-22T19:24:19.201Z,100.00
2022-11-22T19:27:22.612Z,100.00
2022-11-22T19:30:28.441Z,100.00
2022-11-22T19:33:32.654Z,100.00
2022-11-22T19:36:36.465Z,100.00
2022-11-22T19:39:40.522Z,100.00
2022-11-22T19:42:42.639Z,100.00
2022-11-22T19:45:45.943Z,100.00
2022-11-22T19:48:56.029Z,96.38
2022-11-22T19:51:58.534Z,96.06
2022-11-22T19:55:00.622Z,95.53
2022-11-22T19:58:04.056Z,92.88
2022-11-22T20:01:08.456Z,91.54
2022-11-22T20:04:13.499Z,90.70
2022-11-22T20:07:15.722Z,90.28
2022-11-22T20:10:21.276Z,89.54
2022-11-22T20:13:23.362Z,88.49
2022-11-22T20:16:28.218Z,88.47
2022-11-22T20:19:34.360Z,88.39
2022-11-22T20:26:03.909Z,89.31
2022-11-22T20:29:12.648Z,90.02
2022-11-22T20:32:14.943Z,88.97
2022-11-22T20:35:19.549Z,88.98
2022-11-22T20:38:21.983Z,91.11
2022-11-22T20:41:27.035Z,90.08
2022-11-22T20:44:29.455Z,90.86
2022-11-22T20:47:31.912Z,91.24
2022-11-22T20:50:34.436Z,90.42
2022-11-22T20:53:37.269Z,91.09
2022-11-22T20:56:39.598Z,90.27
2022-11-22T20:59:41.710Z,91.13
2022-11-22T21:02:43.959Z,91.12
2022-11-22T21:05:47.059Z,90.33
2022-11-22T21:08:49.867Z,90.35
2022-11-22T21:11:52.031Z,90.31
2022-11-22T21:14:54.096Z,89.50
2022-11-22T21:18:23.472Z,91.29
2022-11-22T21:21:23.371Z,91.94
2022-11-22T21:24:26.689Z,91.45
2022-11-22T21:27:29.039Z,91.29
2022-11-22T21:30:31.119Z,90.61
2022-11-22T21:33:34.769Z,90.68
2022-11-22T21:36:38.270Z,89.80
2022-11-22T21:39:41.492Z,89.98
2022-11-22T21:42:44.805Z,89.45
2022-11-22T21:45:46.898Z,88.68
2022-11-22T21:48:50.464Z,89.60
2022-11-22T21:51:52.614Z,88.96
2022-11-22T21:54:54.776Z,88.48
2022-11-22T21:57:56.970Z,88.26
2022-11-22T22:01:10.917Z,88.70
2022-11-22T22:04:16.813Z,88.51
2022-11-22T22:07:44.825Z,88.67
2022-11-22T22:10:42.022Z,88.77
2022-11-22T22:13:45.266Z,88.71
2022-11-22T22:16:49.575Z,87.47
2022-11-22T22:19:52.798Z,86.83
2022-11-22T22:22:54.993Z,86.84
2022-11-22T22:25:59.924Z,87.39
2022-11-22T22:29:01.971Z,87.80
2022-11-22T22:32:10.274Z,87.24
2022-11-22T22:35:12.723Z,87.52
2022-11-22T22:38:14.751Z,87.95
2022-11-22T22:41:17.958Z,88.59
2022-11-22T22:44:22.037Z,88.94
2022-11-22T22:47:26.179Z,90.17
2022-11-22T22:50:29.127Z,89.82
2022-11-22T22:53:31.494Z,89.71
2022-11-22T22:56:33.591Z,89.80
2022-11-22T22:59:35.716Z,90.49
2022-11-22T23:02:38.264Z,90.48
2022-11-22T23:05:41.317Z,90.89
2022-11-22T23:08:48.143Z,89.10
2022-11-22T23:12:09.685Z,88.24
2022-11-22T23:15:11.834Z,89.68
2022-11-22T23:18:14.335Z,91.88
2022-11-22T23:21:17.648Z,91.68
2022-11-22T23:24:19.769Z,91.71
2022-11-22T23:27:21.870Z,91.70
2022-11-22T23:30:25.683Z,91.97
2022-11-22T23:33:29.603Z,92.72
2022-11-22T23:36:34.826Z,92.39
2022-11-22T23:39:39.734Z,92.84
2022-11-22T23:42:41.979Z,91.71
2022-11-22T23:45:46.993Z,90.88
2022-11-22T23:48:55.566Z,91.28
2022-11-22T23:51:57.745Z,90.77
2022-11-22T23:54:59.776Z,90.63
2022-11-22T23:58:01.953Z,91.35
